sensor_id;sensor_type;location;lat;lon;timestamp;P1;durP1;ratioP1;P2;durP2;ratioP2
31724;SDS011;18306;40.960;14.836;2023-04-30T00:00:31;5.85;;;4.53;;
31724;SDS011;18306;40.960;14.836;2023-04-30T00:02:58;9.73;;;4.78;;
31724;SDS011;18306;40.960;14.836;2023-04-30T00:05:25;13.90;;;6.07;;
31724;SDS011;18306;40.960;14.836;2023-04-30T00:07:52;9.00;;;5.47;;
31724;SDS011;18306;40.960;14.836;2023-04-30T00:10:19;6.85;;;4.28;;
31724;SDS011;18306;40.960;14.836;2023-04-30T00:12:46;12.50;;;4.45;;
31724;SDS011;18306;40.960;14.836;2023-04-30T00:15:13;11.50;;;5.10;;
31724;SDS011;18306;40.960;14.836;2023-04-30T00:17:44;12.32;;;5.63;;
31724;SDS011;18306;40.960;14.836;2023-04-30T00:20:29;10.07;;;5.28;;
31724;SDS011;18306;40.960;14.836;2023-04-30T00:23:06;14.88;;;6.50;;
31724;SDS011;18306;40.960;14.836;2023-04-30T00:25:40;9.75;;;5.63;;
31724;SDS011;18306;40.960;14.836;2023-04-30T00:28:17;10.45;;;5.88;;
31724;SDS011;18306;40.960;14.836;2023-04-30T00:30:44;8.30;;;5.70;;
31724;SDS011;18306;40.960;14.836;2023-04-30T00:33:11;9.80;;;5.10;;
31724;SDS011;18306;40.960;14.836;2023-04-30T00:35:38;10.20;;;6.25;;
31724;SDS011;18306;40.960;14.836;2023-04-30T00:38:05;11.23;;;6.38;;
31724;SDS011;18306;40.960;14.836;2023-04-30T00:40:33;8.50;;;6.00;;
31724;SDS011;18306;40.960;14.836;2023-04-30T00:43:01;10.15;;;5.30;;
31724;SDS011;18306;40.960;14.836;2023-04-30T00:45:29;8.98;;;5.30;;
31724;SDS011;18306;40.960;14.836;2023-04-30T00:47:56;8.77;;;5.55;;
31724;SDS011;18306;40.960;14.836;2023-04-30T00:50:24;7.68;;;4.60;;
31724;SDS011;18306;40.960;14.836;2023-04-30T00:52:51;7.55;;;4.65;;
31724;SDS011;18306;40.960;14.836;2023-04-30T00:55:18;16.08;;;5.13;;
31724;SDS011;18306;40.960;14.836;2023-04-30T00:57:45;7.25;;;4.63;;
31724;SDS011;18306;40.960;14.836;2023-04-30T01:00:13;10.43;;;5.15;;
31724;SDS011;18306;40.960;14.836;2023-04-30T01:02:40;6.25;;;4.53;;
31724;SDS011;18306;40.960;14.836;2023-04-30T01:05:07;11.82;;;5.55;;
31724;SDS011;18306;40.960;14.836;2023-04-30T01:07:34;10.25;;;6.10;;
31724;SDS011;18306;40.960;14.836;2023-04-30T01:10:11;8.73;;;5.53;;
31724;SDS011;18306;40.960;14.836;2023-04-30T01:15:33;10.90;;;5.85;;
31724;SDS011;18306;40.960;14.836;2023-04-30T01:18:12;10.43;;;4.70;;
31724;SDS011;18306;40.960;14.836;2023-04-30T01:20:49;6.28;;;4.47;;
31724;SDS011;18306;40.960;14.836;2023-04-30T01:26:06;7.95;;;4.40;;
31724;SDS011;18306;40.960;14.836;2023-04-30T01:28:41;11.40;;;5.45;;
31724;SDS011;18306;40.960;14.836;2023-04-30T01:31:13;9.68;;;6.38;;
31724;SDS011;18306;40.960;14.836;2023-04-30T01:33:43;10.00;;;5.38;;
31724;SDS011;18306;40.960;14.836;2023-04-30T01:36:12;12.85;;;5.75;;
31724;SDS011;18306;40.960;14.836;2023-04-30T01:41:48;9.20;;;4.60;;
31724;SDS011;18306;40.960;14.836;2023-04-30T01:47:17;8.25;;;4.80;;
31724;SDS011;18306;40.960;14.836;2023-04-30T01:52:48;7.80;;;4.80;;
31724;SDS011;18306;40.960;14.836;2023-04-30T01:55:27;9.50;;;5.28;;
31724;SDS011;18306;40.960;14.836;2023-04-30T01:58:03;5.38;;;4.25;;
31724;SDS011;18306;40.960;14.836;2023-04-30T02:00:32;6.53;;;4.80;;
31724;SDS011;18306;40.960;14.836;2023-04-30T02:02:59;6.40;;;5.13;;
31724;SDS011;18306;40.960;14.836;2023-04-30T02:05:26;8.90;;;4.22;;
31724;SDS011;18306;40.960;14.836;2023-04-30T02:07:55;7.15;;;4.70;;
31724;SDS011;18306;40.960;14.836;2023-04-30T02:10:23;6.90;;;4.38;;
31724;SDS011;18306;40.960;14.836;2023-04-30T02:12:51;7.20;;;4.25;;
31724;SDS011;18306;40.960;14.836;2023-04-30T02:15:18;5.10;;;4.18;;
31724;SDS011;18306;40.960;14.836;2023-04-30T02:17:46;5.43;;;4.13;;
31724;SDS011;18306;40.960;14.836;2023-04-30T02:20:13;9.23;;;5.30;;
31724;SDS011;18306;40.960;14.836;2023-04-30T02:22:42;10.45;;;3.90;;
31724;SDS011;18306;40.960;14.836;2023-04-30T02:25:09;14.77;;;4.85;;
31724;SDS011;18306;40.960;14.836;2023-04-30T02:27:37;11.05;;;5.25;;
31724;SDS011;18306;40.960;14.836;2023-04-30T02:30:05;6.60;;;4.43;;
31724;SDS011;18306;40.960;14.836;2023-04-30T02:32:32;11.18;;;5.20;;
31724;SDS011;18306;40.960;14.836;2023-04-30T02:34:59;7.35;;;4.95;;
31724;SDS011;18306;40.960;14.836;2023-04-30T02:37:26;8.30;;;4.90;;
31724;SDS011;18306;40.960;14.836;2023-04-30T02:39:53;12.80;;;5.53;;
31724;SDS011;18306;40.960;14.836;2023-04-30T02:42:20;7.38;;;5.22;;
31724;SDS011;18306;40.960;14.836;2023-04-30T02:44:47;8.43;;;5.00;;
31724;SDS011;18306;40.960;14.836;2023-04-30T02:47:15;8.52;;;5.60;;
31724;SDS011;18306;40.960;14.836;2023-04-30T02:49:42;7.40;;;5.50;;
31724;SDS011;18306;40.960;14.836;2023-04-30T02:52:09;8.95;;;5.93;;
31724;SDS011;18306;40.960;14.836;2023-04-30T02:54:36;9.52;;;4.85;;
31724;SDS011;18306;40.960;14.836;2023-04-30T02:57:03;13.20;;;5.55;;
31724;SDS011;18306;40.960;14.836;2023-04-30T02:59:30;8.88;;;5.55;;
31724;SDS011;18306;40.960;14.836;2023-04-30T03:01:57;7.97;;;4.85;;
31724;SDS011;18306;40.960;14.836;2023-04-30T03:04:24;9.32;;;5.40;;
31724;SDS011;18306;40.960;14.836;2023-04-30T03:06:51;13.32;;;5.10;;
31724;SDS011;18306;40.960;14.836;2023-04-30T03:09:18;9.32;;;5.30;;
31724;SDS011;18306;40.960;14.836;2023-04-30T03:11:46;7.63;;;5.00;;
31724;SDS011;18306;40.960;14.836;2023-04-30T03:14:13;7.93;;;4.80;;
31724;SDS011;18306;40.960;14.836;2023-04-30T03:16:40;12.50;;;5.72;;
31724;SDS011;18306;40.960;14.836;2023-04-30T03:19:07;10.23;;;5.13;;
31724;SDS011;18306;40.960;14.836;2023-04-30T03:21:34;11.13;;;6.28;;
31724;SDS011;18306;40.960;14.836;2023-04-30T03:24:01;10.77;;;5.93;;
31724;SDS011;18306;40.960;14.836;2023-04-30T03:26:28;7.93;;;5.55;;
31724;SDS011;18306;40.960;14.836;2023-04-30T03:28:55;11.80;;;5.82;;
31724;SDS011;18306;40.960;14.836;2023-04-30T03:31:22;11.43;;;6.80;;
31724;SDS011;18306;40.960;14.836;2023-04-30T03:33:49;9.73;;;5.85;;
31724;SDS011;18306;40.960;14.836;2023-04-30T03:36:16;12.23;;;5.60;;
31724;SDS011;18306;40.960;14.836;2023-04-30T03:38:43;7.13;;;5.00;;
31724;SDS011;18306;40.960;14.836;2023-04-30T03:41:10;11.73;;;5.65;;
31724;SDS011;18306;40.960;14.836;2023-04-30T03:43:37;13.38;;;6.22;;
31724;SDS011;18306;40.960;14.836;2023-04-30T03:46:04;13.35;;;5.97;;
31724;SDS011;18306;40.960;14.836;2023-04-30T03:48:31;12.15;;;6.03;;
31724;SDS011;18306;40.960;14.836;2023-04-30T03:50:59;14.20;;;5.97;;
31724;SDS011;18306;40.960;14.836;2023-04-30T03:53:26;8.45;;;5.55;;
31724;SDS011;18306;40.960;14.836;2023-04-30T03:55:53;9.70;;;5.60;;
31724;SDS011;18306;40.960;14.836;2023-04-30T03:58:21;7.75;;;5.20;;
31724;SDS011;18306;40.960;14.836;2023-04-30T04:00:48;15.55;;;5.93;;
31724;SDS011;18306;40.960;14.836;2023-04-30T04:03:15;9.80;;;5.40;;
31724;SDS011;18306;40.960;14.836;2023-04-30T04:05:43;13.75;;;5.50;;
31724;SDS011;18306;40.960;14.836;2023-04-30T04:08:11;7.95;;;5.03;;
31724;SDS011;18306;40.960;14.836;2023-04-30T04:10:38;9.25;;;5.80;;
31724;SDS011;18306;40.960;14.836;2023-04-30T04:13:06;9.57;;;6.20;;
31724;SDS011;18306;40.960;14.836;2023-04-30T04:15:34;9.18;;;5.72;;
31724;SDS011;18306;40.960;14.836;2023-04-30T04:18:02;9.52;;;5.93;;
31724;SDS011;18306;40.960;14.836;2023-04-30T04:20:29;11.35;;;5.57;;
31724;SDS011;18306;40.960;14.836;2023-04-30T04:22:56;20.48;;;6.55;;
31724;SDS011;18306;40.960;14.836;2023-04-30T04:25:23;9.13;;;5.70;;
31724;SDS011;18306;40.960;14.836;2023-04-30T04:27:50;10.70;;;6.50;;
31724;SDS011;18306;40.960;14.836;2023-04-30T04:30:18;10.88;;;7.05;;
31724;SDS011;18306;40.960;14.836;2023-04-30T04:32:46;11.48;;;5.93;;
31724;SDS011;18306;40.960;14.836;2023-04-30T04:35:17;14.00;;;6.32;;
31724;SDS011;18306;40.960;14.836;2023-04-30T04:37:44;12.95;;;6.20;;
31724;SDS011;18306;40.960;14.836;2023-04-30T04:40:11;10.18;;;6.30;;
31724;SDS011;18306;40.960;14.836;2023-04-30T04:42:39;19.88;;;7.22;;
31724;SDS011;18306;40.960;14.836;2023-04-30T04:45:07;18.10;;;5.88;;
31724;SDS011;18306;40.960;14.836;2023-04-30T04:47:34;7.15;;;5.30;;
31724;SDS011;18306;40.960;14.836;2023-04-30T04:50:02;18.52;;;5.40;;
31724;SDS011;18306;40.960;14.836;2023-04-30T04:52:30;13.23;;;6.05;;
31724;SDS011;18306;40.960;14.836;2023-04-30T04:54:57;12.52;;;6.07;;
31724;SDS011;18306;40.960;14.836;2023-04-30T04:57:25;18.20;;;6.72;;
31724;SDS011;18306;40.960;14.836;2023-04-30T04:59:52;10.90;;;5.72;;
31724;SDS011;18306;40.960;14.836;2023-04-30T05:02:20;8.43;;;5.70;;
31724;SDS011;18306;40.960;14.836;2023-04-30T05:04:49;8.88;;;5.35;;
31724;SDS011;18306;40.960;14.836;2023-04-30T05:07:18;9.60;;;5.80;;
31724;SDS011;18306;40.960;14.836;2023-04-30T05:09:45;8.63;;;5.40;;
31724;SDS011;18306;40.960;14.836;2023-04-30T05:12:13;11.70;;;5.82;;
31724;SDS011;18306;40.960;14.836;2023-04-30T05:14:40;12.93;;;6.05;;
31724;SDS011;18306;40.960;14.836;2023-04-30T05:17:08;9.15;;;5.68;;
31724;SDS011;18306;40.960;14.836;2023-04-30T05:19:35;9.75;;;5.93;;
31724;SDS011;18306;40.960;14.836;2023-04-30T05:22:01;8.95;;;4.80;;
31724;SDS011;18306;40.960;14.836;2023-04-30T05:24:29;9.32;;;5.22;;
31724;SDS011;18306;40.960;14.836;2023-04-30T05:26:56;12.30;;;5.32;;
31724;SDS011;18306;40.960;14.836;2023-04-30T05:29:23;8.68;;;6.18;;
31724;SDS011;18306;40.960;14.836;2023-04-30T05:31:50;13.48;;;5.47;;
31724;SDS011;18306;40.960;14.836;2023-04-30T05:34:17;11.93;;;5.03;;
31724;SDS011;18306;40.960;14.836;2023-04-30T05:36:44;10.35;;;5.85;;
31724;SDS011;18306;40.960;14.836;2023-04-30T05:39:11;10.48;;;5.05;;
31724;SDS011;18306;40.960;14.836;2023-04-30T05:41:38;14.32;;;6.20;;
31724;SDS011;18306;40.960;14.836;2023-04-30T05:44:05;9.00;;;5.20;;
31724;SDS011;18306;40.960;14.836;2023-04-30T05:46:32;9.43;;;5.05;;
31724;SDS011;18306;40.960;14.836;2023-04-30T05:49:00;10.13;;;5.22;;
31724;SDS011;18306;40.960;14.836;2023-04-30T05:51:27;11.77;;;6.45;;
31724;SDS011;18306;40.960;14.836;2023-04-30T05:53:54;7.60;;;5.18;;
31724;SDS011;18306;40.960;14.836;2023-04-30T05:56:22;9.50;;;5.20;;
31724;SDS011;18306;40.960;14.836;2023-04-30T05:58:50;7.45;;;5.13;;
31724;SDS011;18306;40.960;14.836;2023-04-30T06:01:18;9.88;;;4.15;;
31724;SDS011;18306;40.960;14.836;2023-04-30T06:03:46;6.00;;;3.22;;
31724;SDS011;18306;40.960;14.836;2023-04-30T06:06:13;8.55;;;3.95;;
31724;SDS011;18306;40.960;14.836;2023-04-30T06:08:40;6.60;;;3.65;;
31724;SDS011;18306;40.960;14.836;2023-04-30T06:11:10;4.35;;;3.22;;
31724;SDS011;18306;40.960;14.836;2023-04-30T06:13:38;4.63;;;3.53;;
31724;SDS011;18306;40.960;14.836;2023-04-30T06:16:06;5.30;;;3.30;;
31724;SDS011;18306;40.960;14.836;2023-04-30T06:18:33;6.47;;;3.53;;
31724;SDS011;18306;40.960;14.836;2023-04-30T06:21:00;3.78;;;2.90;;
31724;SDS011;18306;40.960;14.836;2023-04-30T06:23:27;5.60;;;3.70;;
31724;SDS011;18306;40.960;14.836;2023-04-30T06:25:54;6.10;;;3.55;;
31724;SDS011;18306;40.960;14.836;2023-04-30T06:28:21;6.93;;;2.83;;
31724;SDS011;18306;40.960;14.836;2023-04-30T06:30:49;4.93;;;2.80;;
31724;SDS011;18306;40.960;14.836;2023-04-30T06:33:17;7.72;;;3.40;;
31724;SDS011;18306;40.960;14.836;2023-04-30T06:35:43;6.57;;;3.38;;
31724;SDS011;18306;40.960;14.836;2023-04-30T06:38:11;7.07;;;3.38;;
31724;SDS011;18306;40.960;14.836;2023-04-30T06:40:38;8.85;;;2.65;;
31724;SDS011;18306;40.960;14.836;2023-04-30T06:43:05;8.27;;;3.55;;
31724;SDS011;18306;40.960;14.836;2023-04-30T06:45:32;4.32;;;2.30;;
31724;SDS011;18306;40.960;14.836;2023-04-30T06:48:01;5.28;;;3.38;;
31724;SDS011;18306;40.960;14.836;2023-04-30T06:50:28;7.85;;;3.38;;
31724;SDS011;18306;40.960;14.836;2023-04-30T06:52:56;5.22;;;3.13;;
31724;SDS011;18306;40.960;14.836;2023-04-30T06:55:23;5.32;;;3.00;;
31724;SDS011;18306;40.960;14.836;2023-04-30T06:57:56;6.10;;;2.75;;
31724;SDS011;18306;40.960;14.836;2023-04-30T07:00:23;11.75;;;3.58;;
31724;SDS011;18306;40.960;14.836;2023-04-30T07:02:50;11.55;;;3.33;;
31724;SDS011;18306;40.960;14.836;2023-04-30T07:05:17;3.45;;;2.55;;
31724;SDS011;18306;40.960;14.836;2023-04-30T07:07:45;12.07;;;3.05;;
31724;SDS011;18306;40.960;14.836;2023-04-30T07:10:12;5.13;;;3.03;;
31724;SDS011;18306;40.960;14.836;2023-04-30T07:12:39;3.67;;;2.72;;
31724;SDS011;18306;40.960;14.836;2023-04-30T07:15:06;3.35;;;2.53;;
31724;SDS011;18306;40.960;14.836;2023-04-30T07:17:33;6.72;;;2.70;;
31724;SDS011;18306;40.960;14.836;2023-04-30T07:20:00;5.57;;;2.78;;
31724;SDS011;18306;40.960;14.836;2023-04-30T07:22:31;8.18;;;2.65;;
31724;SDS011;18306;40.960;14.836;2023-04-30T07:24:58;3.38;;;2.30;;
31724;SDS011;18306;40.960;14.836;2023-04-30T07:27:29;5.40;;;2.97;;
31724;SDS011;18306;40.960;14.836;2023-04-30T07:29:56;6.28;;;3.33;;
31724;SDS011;18306;40.960;14.836;2023-04-30T07:32:31;7.38;;;2.90;;
31724;SDS011;18306;40.960;14.836;2023-04-30T07:35:00;4.13;;;2.53;;
31724;SDS011;18306;40.960;14.836;2023-04-30T07:37:29;8.18;;;2.95;;
31724;SDS011;18306;40.960;14.836;2023-04-30T07:39:57;5.45;;;2.25;;
31724;SDS011;18306;40.960;14.836;2023-04-30T07:42:28;7.07;;;2.10;;
31724;SDS011;18306;40.960;14.836;2023-04-30T07:44:55;3.03;;;2.45;;
31724;SDS011;18306;40.960;14.836;2023-04-30T07:47:24;2.90;;;2.10;;
31724;SDS011;18306;40.960;14.836;2023-04-30T07:49:52;2.45;;;1.80;;
31724;SDS011;18306;40.960;14.836;2023-04-30T07:52:20;3.08;;;2.08;;
31724;SDS011;18306;40.960;14.836;2023-04-30T07:54:47;3.53;;;2.30;;
31724;SDS011;18306;40.960;14.836;2023-04-30T07:57:17;4.78;;;1.88;;
31724;SDS011;18306;40.960;14.836;2023-04-30T07:59:45;4.90;;;2.40;;
31724;SDS011;18306;40.960;14.836;2023-04-30T08:02:15;5.75;;;2.03;;
31724;SDS011;18306;40.960;14.836;2023-04-30T08:04:42;3.28;;;2.35;;
31724;SDS011;18306;40.960;14.836;2023-04-30T08:07:15;3.03;;;2.13;;
31724;SDS011;18306;40.960;14.836;2023-04-30T08:09:42;1.98;;;1.35;;
31724;SDS011;18306;40.960;14.836;2023-04-30T08:12:09;5.22;;;2.65;;
31724;SDS011;18306;40.960;14.836;2023-04-30T08:14:36;2.63;;;1.80;;
31724;SDS011;18306;40.960;14.836;2023-04-30T08:17:03;4.07;;;2.35;;
31724;SDS011;18306;40.960;14.836;2023-04-30T08:19:30;2.80;;;1.77;;
31724;SDS011;18306;40.960;14.836;2023-04-30T08:21:57;4.88;;;2.20;;
31724;SDS011;18306;40.960;14.836;2023-04-30T08:24:25;5.45;;;2.20;;
31724;SDS011;18306;40.960;14.836;2023-04-30T08:26:52;1.85;;;1.63;;
31724;SDS011;18306;40.960;14.836;2023-04-30T08:29:20;2.25;;;1.88;;
31724;SDS011;18306;40.960;14.836;2023-04-30T08:31:47;2.92;;;2.25;;
31724;SDS011;18306;40.960;14.836;2023-04-30T08:34:17;2.58;;;1.75;;
31724;SDS011;18306;40.960;14.836;2023-04-30T08:36:44;2.35;;;2.13;;
31724;SDS011;18306;40.960;14.836;2023-04-30T08:39:11;4.88;;;2.35;;
31724;SDS011;18306;40.960;14.836;2023-04-30T08:41:38;4.10;;;1.95;;
31724;SDS011;18306;40.960;14.836;2023-04-30T08:44:08;3.60;;;2.03;;
31724;SDS011;18306;40.960;14.836;2023-04-30T08:46:38;2.67;;;2.05;;
31724;SDS011;18306;40.960;14.836;2023-04-30T08:49:06;3.40;;;2.03;;
31724;SDS011;18306;40.960;14.836;2023-04-30T08:51:33;4.28;;;2.75;;
31724;SDS011;18306;40.960;14.836;2023-04-30T08:54:00;3.20;;;2.03;;
31724;SDS011;18306;40.960;14.836;2023-04-30T08:56:28;2.97;;;2.05;;
31724;SDS011;18306;40.960;14.836;2023-04-30T08:58:56;3.50;;;2.20;;
31724;SDS011;18306;40.960;14.836;2023-04-30T09:01:25;2.05;;;1.85;;
31724;SDS011;18306;40.960;14.836;2023-04-30T09:03:55;5.93;;;2.40;;
31724;SDS011;18306;40.960;14.836;2023-04-30T09:06:22;6.47;;;2.40;;
31724;SDS011;18306;40.960;14.836;2023-04-30T09:08:50;2.03;;;1.80;;
31724;SDS011;18306;40.960;14.836;2023-04-30T09:11:24;3.17;;;2.22;;
31724;SDS011;18306;40.960;14.836;2023-04-30T09:13:57;2.53;;;1.88;;
31724;SDS011;18306;40.960;14.836;2023-04-30T09:16:30;1.85;;;1.65;;
31724;SDS011;18306;40.960;14.836;2023-04-30T09:19:24;2.47;;;1.98;;
31724;SDS011;18306;40.960;14.836;2023-04-30T09:21:53;4.60;;;2.05;;
31724;SDS011;18306;40.960;14.836;2023-04-30T09:24:20;4.40;;;2.63;;
31724;SDS011;18306;40.960;14.836;2023-04-30T09:26:48;2.55;;;1.65;;
31724;SDS011;18306;40.960;14.836;2023-04-30T09:29:16;3.75;;;2.40;;
31724;SDS011;18306;40.960;14.836;2023-04-30T09:31:44;5.03;;;2.35;;
31724;SDS011;18306;40.960;14.836;2023-04-30T09:34:12;3.15;;;1.83;;
31724;SDS011;18306;40.960;14.836;2023-04-30T09:36:52;2.88;;;2.17;;
31724;SDS011;18306;40.960;14.836;2023-04-30T09:39:20;4.10;;;2.30;;
31724;SDS011;18306;40.960;14.836;2023-04-30T09:41:49;2.47;;;1.48;;
31724;SDS011;18306;40.960;14.836;2023-04-30T09:44:29;3.83;;;2.22;;
31724;SDS011;18306;40.960;14.836;2023-04-30T09:47:01;4.82;;;2.00;;
31724;SDS011;18306;40.960;14.836;2023-04-30T09:49:28;4.32;;;2.13;;
31724;SDS011;18306;40.960;14.836;2023-04-30T09:51:56;3.80;;;1.95;;
31724;SDS011;18306;40.960;14.836;2023-04-30T09:54:25;3.65;;;1.83;;
31724;SDS011;18306;40.960;14.836;2023-04-30T09:56:57;2.28;;;1.90;;
31724;SDS011;18306;40.960;14.836;2023-04-30T09:59:28;4.00;;;1.67;;
31724;SDS011;18306;40.960;14.836;2023-04-30T10:01:57;3.72;;;2.47;;
31724;SDS011;18306;40.960;14.836;2023-04-30T10:04:29;6.47;;;2.40;;
31724;SDS011;18306;40.960;14.836;2023-04-30T10:07:18;2.83;;;2.25;;
31724;SDS011;18306;40.960;14.836;2023-04-30T10:09:50;4.07;;;2.63;;
31724;SDS011;18306;40.960;14.836;2023-04-30T10:12:19;5.85;;;2.72;;
31724;SDS011;18306;40.960;14.836;2023-04-30T10:15:16;6.25;;;3.03;;
31724;SDS011;18306;40.960;14.836;2023-04-30T10:18:10;3.13;;;2.30;;
31724;SDS011;18306;40.960;14.836;2023-04-30T10:20:49;5.65;;;2.33;;
31724;SDS011;18306;40.960;14.836;2023-04-30T10:23:18;4.28;;;2.67;;
31724;SDS011;18306;40.960;14.836;2023-04-30T10:25:47;3.38;;;2.10;;
31724;SDS011;18306;40.960;14.836;2023-04-30T10:28:15;3.03;;;1.90;;
31724;SDS011;18306;40.960;14.836;2023-04-30T10:30:43;6.68;;;2.85;;
31724;SDS011;18306;40.960;14.836;2023-04-30T10:36:38;13.88;;;2.45;;
31724;SDS011;18306;40.960;14.836;2023-04-30T10:39:14;2.85;;;2.22;;
31724;SDS011;18306;40.960;14.836;2023-04-30T10:41:46;3.63;;;2.17;;
31724;SDS011;18306;40.960;14.836;2023-04-30T10:44:14;3.35;;;1.98;;
31724;SDS011;18306;40.960;14.836;2023-04-30T10:46:47;3.17;;;2.17;;
31724;SDS011;18306;40.960;14.836;2023-04-30T10:49:14;2.70;;;2.08;;
31724;SDS011;18306;40.960;14.836;2023-04-30T10:52:03;2.88;;;2.05;;
31724;SDS011;18306;40.960;14.836;2023-04-30T10:57:25;6.20;;;2.60;;
31724;SDS011;18306;40.960;14.836;2023-04-30T11:02:43;4.28;;;2.13;;
31724;SDS011;18306;40.960;14.836;2023-04-30T11:05:12;4.47;;;2.78;;
31724;SDS011;18306;40.960;14.836;2023-04-30T11:07:49;2.90;;;2.47;;
31724;SDS011;18306;40.960;14.836;2023-04-30T11:10:33;3.28;;;1.67;;
31724;SDS011;18306;40.960;14.836;2023-04-30T11:13:05;1.60;;;1.48;;
31724;SDS011;18306;40.960;14.836;2023-04-30T11:15:42;3.50;;;2.08;;
31724;SDS011;18306;40.960;14.836;2023-04-30T11:18:10;3.08;;;2.13;;
31724;SDS011;18306;40.960;14.836;2023-04-30T11:20:39;4.45;;;1.98;;
31724;SDS011;18306;40.960;14.836;2023-04-30T11:23:14;2.78;;;1.70;;
31724;SDS011;18306;40.960;14.836;2023-04-30T11:25:46;3.40;;;1.73;;
31724;SDS011;18306;40.960;14.836;2023-04-30T11:28:18;1.95;;;1.48;;
31724;SDS011;18306;40.960;14.836;2023-04-30T11:30:56;3.08;;;1.50;;
31724;SDS011;18306;40.960;14.836;2023-04-30T11:33:27;2.20;;;1.90;;
31724;SDS011;18306;40.960;14.836;2023-04-30T11:35:55;5.78;;;2.38;;
31724;SDS011;18306;40.960;14.836;2023-04-30T11:38:27;1.58;;;1.48;;
31724;SDS011;18306;40.960;14.836;2023-04-30T11:40:57;2.75;;;2.05;;
31724;SDS011;18306;40.960;14.836;2023-04-30T11:43:24;5.15;;;2.15;;
31724;SDS011;18306;40.960;14.836;2023-04-30T11:46:08;3.45;;;1.98;;
31724;SDS011;18306;40.960;14.836;2023-04-30T11:48:40;2.28;;;1.50;;
31724;SDS011;18306;40.960;14.836;2023-04-30T11:53:47;3.45;;;2.17;;
31724;SDS011;18306;40.960;14.836;2023-04-30T11:56:19;5.18;;;2.60;;
31724;SDS011;18306;40.960;14.836;2023-04-30T11:58:47;3.58;;;2.20;;
31724;SDS011;18306;40.960;14.836;2023-04-30T12:01:15;2.67;;;1.63;;
31724;SDS011;18306;40.960;14.836;2023-04-30T12:03:44;2.58;;;2.38;;
31724;SDS011;18306;40.960;14.836;2023-04-30T12:06:25;1.80;;;1.58;;
31724;SDS011;18306;40.960;14.836;2023-04-30T12:08:55;3.53;;;2.40;;
31724;SDS011;18306;40.960;14.836;2023-04-30T12:11:25;4.15;;;2.85;;
31724;SDS011;18306;40.960;14.836;2023-04-30T12:13:56;2.88;;;2.10;;
31724;SDS011;18306;40.960;14.836;2023-04-30T12:16:41;6.10;;;1.80;;
31724;SDS011;18306;40.960;14.836;2023-04-30T12:19:17;4.65;;;2.13;;
31724;SDS011;18306;40.960;14.836;2023-04-30T12:21:53;4.55;;;2.95;;
31724;SDS011;18306;40.960;14.836;2023-04-30T12:25:14;4.30;;;2.45;;
31724;SDS011;18306;40.960;14.836;2023-04-30T12:27:45;2.22;;;1.70;;
31724;SDS011;18306;40.960;14.836;2023-04-30T12:32:48;4.25;;;1.65;;
31724;SDS011;18306;40.960;14.836;2023-04-30T12:35:23;3.58;;;2.25;;
31724;SDS011;18306;40.960;14.836;2023-04-30T12:40:35;2.85;;;1.98;;
31724;SDS011;18306;40.960;14.836;2023-04-30T12:43:06;2.97;;;2.50;;
31724;SDS011;18306;40.960;14.836;2023-04-30T12:45:44;5.18;;;2.42;;
31724;SDS011;18306;40.960;14.836;2023-04-30T12:48:12;2.78;;;1.90;;
31724;SDS011;18306;40.960;14.836;2023-04-30T12:50:45;3.75;;;2.42;;
31724;SDS011;18306;40.960;14.836;2023-04-30T12:53:31;3.63;;;2.42;;
31724;SDS011;18306;40.960;14.836;2023-04-30T12:56:06;3.88;;;2.75;;
31724;SDS011;18306;40.960;14.836;2023-04-30T12:58:41;5.78;;;2.83;;
31724;SDS011;18306;40.960;14.836;2023-04-30T13:01:11;6.78;;;2.58;;
31724;SDS011;18306;40.960;14.836;2023-04-30T13:03:38;6.57;;;2.75;;
31724;SDS011;18306;40.960;14.836;2023-04-30T13:06:06;4.32;;;2.10;;
31724;SDS011;18306;40.960;14.836;2023-04-30T13:08:33;4.25;;;2.55;;
31724;SDS011;18306;40.960;14.836;2023-04-30T13:11:01;3.40;;;2.60;;
31724;SDS011;18306;40.960;14.836;2023-04-30T13:13:31;3.67;;;2.15;;
31724;SDS011;18306;40.960;14.836;2023-04-30T13:15:59;2.90;;;1.52;;
31724;SDS011;18306;40.960;14.836;2023-04-30T13:18:29;2.95;;;1.83;;
31724;SDS011;18306;40.960;14.836;2023-04-30T13:20:56;6.32;;;2.63;;
31724;SDS011;18306;40.960;14.836;2023-04-30T13:23:24;4.43;;;2.67;;
31724;SDS011;18306;40.960;14.836;2023-04-30T13:25:53;3.72;;;2.53;;
31724;SDS011;18306;40.960;14.836;2023-04-30T13:28:21;4.80;;;2.58;;
31724;SDS011;18306;40.960;14.836;2023-04-30T13:31:08;4.40;;;2.23;;
31724;SDS011;18306;40.960;14.836;2023-04-30T13:33:48;4.65;;;2.53;;
31724;SDS011;18306;40.960;14.836;2023-04-30T13:36:19;3.00;;;2.25;;
31724;SDS011;18306;40.960;14.836;2023-04-30T13:38:47;4.20;;;2.60;;
31724;SDS011;18306;40.960;14.836;2023-04-30T13:41:14;4.68;;;2.50;;
31724;SDS011;18306;40.960;14.836;2023-04-30T13:43:41;7.72;;;3.45;;
31724;SDS011;18306;40.960;14.836;2023-04-30T13:48:50;3.80;;;3.08;;
31724;SDS011;18306;40.960;14.836;2023-04-30T13:51:19;3.92;;;2.65;;
31724;SDS011;18306;40.960;14.836;2023-04-30T13:53:46;4.85;;;2.50;;
31724;SDS011;18306;40.960;14.836;2023-04-30T13:56:13;5.80;;;3.25;;
31724;SDS011;18306;40.960;14.836;2023-04-30T13:58:40;4.75;;;2.85;;
31724;SDS011;18306;40.960;14.836;2023-04-30T14:01:13;4.50;;;3.35;;
31724;SDS011;18306;40.960;14.836;2023-04-30T14:03:40;6.78;;;2.88;;
31724;SDS011;18306;40.960;14.836;2023-04-30T14:07:00;4.68;;;2.88;;
31724;SDS011;18306;40.960;14.836;2023-04-30T14:09:28;7.97;;;3.15;;
31724;SDS011;18306;40.960;14.836;2023-04-30T14:12:09;6.43;;;2.58;;
31724;SDS011;18306;40.960;14.836;2023-04-30T14:14:38;8.25;;;2.92;;
31724;SDS011;18306;40.960;14.836;2023-04-30T14:17:06;3.95;;;2.38;;
31724;SDS011;18306;40.960;14.836;2023-04-30T14:19:35;3.42;;;2.92;;
31724;SDS011;18306;40.960;14.836;2023-04-30T14:22:05;5.45;;;2.70;;
31724;SDS011;18306;40.960;14.836;2023-04-30T14:24:34;4.45;;;2.67;;
31724;SDS011;18306;40.960;14.836;2023-04-30T14:27:01;5.75;;;3.20;;
31724;SDS011;18306;40.960;14.836;2023-04-30T14:29:34;4.03;;;3.10;;
31724;SDS011;18306;40.960;14.836;2023-04-30T14:32:02;5.05;;;3.30;;
31724;SDS011;18306;40.960;14.836;2023-04-30T14:34:34;8.02;;;3.63;;
31724;SDS011;18306;40.960;14.836;2023-04-30T14:37:06;3.70;;;2.40;;
31724;SDS011;18306;40.960;14.836;2023-04-30T14:39:33;4.45;;;3.42;;
31724;SDS011;18306;40.960;14.836;2023-04-30T14:42:01;8.23;;;3.03;;
31724;SDS011;18306;40.960;14.836;2023-04-30T14:44:28;12.98;;;3.83;;
31724;SDS011;18306;40.960;14.836;2023-04-30T14:46:57;7.10;;;3.72;;
31724;SDS011;18306;40.960;14.836;2023-04-30T14:49:26;5.15;;;3.30;;
31724;SDS011;18306;40.960;14.836;2023-04-30T14:51:56;3.90;;;2.88;;
31724;SDS011;18306;40.960;14.836;2023-04-30T14:54:27;8.45;;;3.92;;
31724;SDS011;18306;40.960;14.836;2023-04-30T14:56:55;8.10;;;3.10;;
31724;SDS011;18306;40.960;14.836;2023-04-30T14:59:33;5.75;;;3.13;;
31724;SDS011;18306;40.960;14.836;2023-04-30T15:02:10;7.03;;;3.88;;
31724;SDS011;18306;40.960;14.836;2023-04-30T15:04:42;6.78;;;3.45;;
31724;SDS011;18306;40.960;14.836;2023-04-30T15:07:11;6.10;;;3.72;;
31724;SDS011;18306;40.960;14.836;2023-04-30T15:09:38;5.53;;;3.92;;
31724;SDS011;18306;40.960;14.836;2023-04-30T15:12:15;3.83;;;3.28;;
31724;SDS011;18306;40.960;14.836;2023-04-30T15:14:51;6.25;;;3.65;;
31724;SDS011;18306;40.960;14.836;2023-04-30T15:20:49;8.00;;;3.88;;
31724;SDS011;18306;40.960;14.836;2023-04-30T15:23:17;5.22;;;4.07;;